Time;durP1;ratioP1;P1;durP2;ratioP2;P2;SDS_P1;SDS_P2;PMS_P1;PMS_P2;Temp;Humidity;BMP_temperature;BMP_pressure;BME280_temperature;BME280_humidity;BME280_pressure;Samples;Min_cycle;Max_cycle;Signal;HPM_P1;HPM_P2
2024/03/08 00:00:28;;;;;;;20.55;9.25;;;;;;;-0.22;100.00;95781.53;2099270;28;20041;-60
2024/03/08 00:01:29;;;;;;;20.30;10.10;;;;;;;-0.22;100.00;95786.63;2098968;28;20052;-60
2024/03/08 00:02:30;;;;;;;21.95;11.75;;;;;;;-0.20;100.00;95785.81;2099265;28;20041;-60
2024/03/08 00:03:32;;;;;;;24.42;11.68;;;;;;;-0.26;100.00;95773.94;2098815;28;20393;-60
2024/03/08 00:04:33;;;;;;;30.65;15.85;;;;;;;-0.26;100.00;95773.94;2098603;28;20048;-61
2024/03/08 00:05:34;;;;;;;21.92;11.15;;;;;;;-0.31;100.00;95780.78;2099050;28;20055;-60
2024/03/08 00:06:35;;;;;;;24.52;11.30;;;;;;;-0.34;100.00;95775.72;2099111;28;20484;-61
2024/03/08 00:07:39;;;;;;;23.60;12.65;;;;;;;-0.33;100.00;95779.94;2098809;28;20060;-60
2024/03/08 00:08:41;;;;;;;26.90;13.60;;;;;;;-0.29;100.00;95774.81;2098265;28;20094;-61
2024/03/08 00:09:42;;;;;;;24.38;11.00;;;;;;;-0.30;100.00;95772.25;2098443;28;20480;-60
2024/03/08 00:10:43;;;;;;;24.25;11.57;;;;;;;-0.34;100.00;95775.72;2099096;28;20491;-61
2024/03/08 00:11:44;;;;;;;28.88;14.05;;;;;;;-0.31;100.00;95773.97;2098586;28;20040;-61
2024/03/08 00:12:46;;;;;;;26.95;12.27;;;;;;;-0.32;100.00;95769.75;2099094;28;20048;-60
2024/03/08 00:13:47;;;;;;;20.35;9.63;;;;;;;-0.34;100.00;95775.72;2098895;28;20056;-61
2024/03/08 00:14:48;;;;;;;21.30;10.93;;;;;;;-0.32;100.00;95769.75;2099360;28;20059;-60
2024/03/08 00:15:49;;;;;;;29.67;15.52;;;;;;;-0.32;100.00;95761.22;2098447;28;20045;-60
2024/03/08 00:16:52;;;;;;;23.27;10.45;;;;;;;-0.36;100.00;95765.50;2099101;28;20055;-60
2024/03/08 00:17:53;;;;;;;25.88;12.15;;;;;;;-0.33;100.00;95772.28;2098786;28;20048;-60
2024/03/08 00:18:54;;;;;;;23.88;11.13;;;;;;;-0.36;100.00;95768.06;2099108;28;20032;-60
2024/03/08 00:19:55;;;;;;;29.38;12.32;;;;;;;-0.41;100.00;95769.81;2099302;28;20416;-60
2024/03/08 00:20:57;;;;;;;26.80;12.90;;;;;;;-0.37;100.00;95771.47;2099311;28;20033;-60
2024/03/08 00:21:58;;;;;;;25.98;12.57;;;;;;;-0.44;100.00;95767.28;2098281;28;20408;-60
2024/03/08 00:22:59;;;;;;;25.00;10.50;;;;;;;-0.43;100.00;95766.41;2097960;28;20073;-60
2024/03/08 00:24:00;;;;;;;30.23;15.05;;;;;;;-0.42;100.00;95768.13;2098261;28;20409;-60
2024/03/08 00:25:05;;;;;;;26.50;14.15;;;;;;;-0.47;100.00;95767.31;2098819;28;20048;-60
2024/03/08 00:26:06;;;;;;;24.05;11.13;;;;;;;-0.50;100.00;95757.97;2099003;28;20036;-60
2024/03/08 00:27:08;;;;;;;27.05;11.60;;;;;;;-0.46;100.00;95769.00;2098467;28;20067;-61
2024/03/08 00:28:13;;;;;;;24.70;12.40;;;;;;;-0.47;100.00;95757.94;2098017;28;20496;-60
2024/03/08 00:29:14;;;;;;;27.50;11.95;;;;;;;-0.49;100.00;95756.25;2098988;28;20055;-60
2024/03/08 00:30:15;;;;;;;24.27;11.90;;;;;;;-0.47;100.00;95763.03;2098135;28;20048;-60
2024/03/08 00:31:16;;;;;;;28.08;12.73;;;;;;;-0.45;100.00;95760.50;2099034;28;20385;-60
2024/03/08 00:32:18;;;;;;;29.80;14.88;;;;;;;-0.48;100.00;95755.44;2098243;28;20052;-62
2024/03/08 00:33:19;;;;;;;25.15;11.85;;;;;;;-0.56;100.00;95755.47;2098947;28;20032;-60
2024/03/08 00:34:20;;;;;;;26.80;10.68;;;;;;;-0.52;100.00;95751.19;2098935;28;20044;-60
2024/03/08 00:35:22;;;;;;;23.38;12.10;;;;;;;-0.57;100.00;95756.31;2097860;28;20385;-60
2024/03/08 00:36:24;;;;;;;32.00;14.45;;;;;;;-0.61;100.00;95757.22;2098349;28;20408;-60
2024/03/08 00:37:25;;;;;;;22.55;11.63;;;;;;;-0.60;100.00;95741.03;2098352;28;20067;-61
2024/03/08 00:38:27;;;;;;;19.05;8.02;;;;;;;-0.52;100.00;95752.03;2098458;28;20496;-60
2024/03/08 00:39:28;;;;;;;29.40;13.15;;;;;;;-0.53;100.00;95745.25;2098783;28;20051;-60
2024/03/08 00:40:29;;;;;;;27.23;12.90;;;;;;;-0.55;100.00;95757.16;2098735;28;20044;-60
2024/03/08 00:41:30;;;;;;;21.25;8.75;;;;;;;-0.54;100.00;95743.53;2098857;28;20032;-60
2024/03/08 00:42:31;;;;;;;24.08;11.43;;;;;;;-0.53;100.00;95745.25;2099152;28;20032;-60
2024/03/08 00:43:32;;;;;;;19.60;9.15;;;;;;;-0.51;100.00;95747.78;2098826;28;20043;-60
2024/03/08 00:44:33;;;;;;;26.95;13.75;;;;;;;-0.56;100.00;95745.28;2098851;28;20036;-60
2024/03/08 00:45:34;;;;;;;33.78;13.45;;;;;;;-0.57;100.00;95751.22;2099071;28;20587;-60
2024/03/08 00:46:35;;;;;;;31.20;14.88;;;;;;;-0.57;100.00;95751.22;2098529;28;20045;-60
2024/03/08 00:47:37;;;;;;;30.40;15.57;;;;;;;-0.57;100.00;95747.81;2098613;28;20059;-60
2024/03/08 00:48:38;;;;;;;29.98;14.38;;;;;;;-0.60;100.00;95747.84;2098418;28;20056;-60
2024/03/08 00:49:41;;;;;;;16.88;8.38;;;;;;;-0.64;100.00;95746.16;2098742;28;20507;-60
2024/03/08 00:50:45;;;;;;;30.58;15.63;;;;;;;-0.67;100.00;95745.38;2097906;28;20048;-61
2024/03/08 00:51:46;;;;;;;23.27;12.38;;;;;;;-0.64;100.00;95751.28;2089686;28;20186;-60
2024/03/08 00:52:47;;;;;;;28.67;15.38;;;;;;;-0.67;100.00;95736.84;2089924;28;20037;-60
2024/03/08 00:53:48;;;;;;;27.52;13.98;;;;;;;-0.73;100.00;95750.47;2089963;28;20048;-60
2024/03/08 00:54:49;;;;;;;22.40;10.68;;;;;;;-0.67;100.00;95742.81;2090092;28;20045;-60
2024/03/08 00:55:50;;;;;;;29.25;15.18;;;;;;;-0.63;100.00;95748.72;2098750;28;20040;-60
2024/03/08 00:56:52;;;;;;;27.23;13.98;;;;;;;-0.65;100.00;95749.59;2098860;28;20396;-60
2024/03/08 00:57:53;;;;;;;26.48;11.88;;;;;;;-0.67;100.00;95736.84;2098889;28;20021;-60
2024/03/08 00:58:54;;;;;;;26.50;13.98;;;;;;;-0.65;100.00;95739.38;2098647;28;20032;-60
2024/03/08 00:59:56;;;;;;;34.53;17.67;;;;;;;-0.70;100.00;95740.25;2098816;28;20024;-59
2024/03/08 01:00:57;;;;;;;25.65;12.73;;;;;;;-0.73;100.00;95730.09;2098649;28;20063;-60
2024/03/08 01:02:00;;;;;;;28.67;13.45;;;;;;;-0.71;100.00;95740.28;2098387;28;20040;-60
2024/03/08 01:03:03;;;;;;;26.38;12.73;;;;;;;-0.75;100.00;95729.28;2097560;28;20059;-60
2024/03/08 01:04:04;;;;;;;26.85;13.82;;;;;;;-0.68;100.00;95727.50;2098059;28;20067;-60
2024/03/08 01:05:07;;;;;;;28.55;13.45;;;;;;;-0.71;100.00;95736.03;2098126;28;20040;-60
2024/03/08 01:06:08;;;;;;;26.83;13.70;;;;;;;-0.71;100.00;95735.19;2098203;28;20396;-60
2024/03/08 01:07:09;;;;;;;30.63;14.75;;;;;;;-0.74;100.00;95733.50;2098730;28;20040;-60
2024/03/08 01:08:11;;;;;;;25.55;12.55;;;;;;;-0.73;100.00;95726.69;2098608;28;20404;-61
2024/03/08 01:09:13;;;;;;;28.63;13.32;;;;;;;-0.75;100.00;95724.19;2098586;28;20098;-60
2024/03/08 01:10:14;;;;;;;32.05;15.50;;;;;;;-0.73;100.00;95722.44;2097955;28;20057;-60
2024/03/08 01:11:15;;;;;;;22.17;10.07;;;;;;;-0.73;100.00;95719.03;2098905;28;20040;-60
2024/03/08 01:12:16;;;;;;;27.60;13.82;;;;;;;-0.76;100.00;95721.63;2098702;28;20044;-60
2024/03/08 01:13:18;;;;;;;32.88;15.30;;;;;;;-0.77;100.00;95725.88;2098323;28;20408;-60
2024/03/08 01:14:22;;;;;;;27.75;12.80;;;;;;;-0.78;100.00;95716.53;2098324;28;20480;-60
2024/03/08 01:15:23;;;;;;;30.83;15.00;;;;;;;-0.74;100.00;95722.47;2098533;28;20404;-60
2024/03/08 01:16:24;;;;;;;27.17;12.10;;;;;;;-0.79;100.00;95717.38;2098572;28;20047;-60
2024/03/08 01:17:26;;;;;;;31.05;15.75;;;;;;;-0.73;100.00;95724.16;2098884;28;20040;-60
2024/03/08 01:18:27;;;;;;;27.70;14.10;;;;;;;-0.76;100.00;95714.81;2097857;28;20492;-60
2024/03/08 01:19:28;;;;;;;27.60;14.18;;;;;;;-0.76;100.00;95713.97;2097837;28;20063;-60
2024/03/08 01:20:30;;;;;;;28.65;13.02;;;;;;;-0.74;100.00;95725.84;2098648;28;20043;-60
2024/03/08 01:21:31;;;;;;;23.40;12.43;;;;;;;-0.77;100.00;95713.13;2097897;28;20053;-60
2024/03/08 01:22:33;;;;;;;23.55;10.82;;;;;;;-0.76;100.00;95709.72;2098268;28;20051;-60
2024/03/08 01:23:34;;;;;;;21.65;10.43;;;;;;;-0.71;100.00;95707.97;2098353;28;20052;-60
2024/03/08 01:24:35;;;;;;;23.48;9.30;;;;;;;-0.73;100.00;95699.47;2097875;28;20048;-60
2024/03/08 01:25:36;;;;;;;19.15;10.30;;;;;;;-0.73;100.00;95706.28;2098577;28;20116;-60
2024/03/08 01:26:38;;;;;;;30.45;15.75;;;;;;;-0.72;100.00;95713.09;2098080;28;20048;-60
2024/03/08 01:27:39;;;;;;;19.27;9.32;;;;;;;-0.74;100.00;95690.16;2098534;28;20036;-60
2024/03/08 01:28:40;;;;;;;29.67;14.98;;;;;;;-0.74;100.00;95702.91;2098452;28;20044;-60
2024/03/08 01:29:42;;;;;;;28.38;13.77;;;;;;;-0.75;100.00;95710.56;2098469;28;20412;-61
2024/03/08 01:30:44;;;;;;;23.75;9.93;;;;;;;-0.77;100.00;95708.03;2097860;28;20045;-60
2024/03/08 01:31:45;;;;;;;23.92;9.75;;;;;;;-0.73;100.00;95691.84;2098166;28;20048;-61
2024/03/08 01:32:46;;;;;;;17.73;8.35;;;;;;;-0.70;100.00;95701.16;2098497;28;20036;-60
2024/03/08 01:33:48;;;;;;;25.88;11.13;;;;;;;-0.75;100.00;95688.47;2098054;28;20040;-60
2024/03/08 01:34:49;;;;;;;29.15;12.27;;;;;;;-0.76;100.00;95701.22;2098301;28;20067;-60
2024/03/08 01:35:50;;;;;;;19.40;8.73;;;;;;;-0.75;100.00;95693.56;2097801;28;20424;-60
2024/03/08 01:36:51;;;;;;;19.27;10.38;;;;;;;-0.74;100.00;95690.16;2097979;28;20052;-60
2024/03/08 01:37:53;;;;;;;19.77;9.07;;;;;;;-0.74;100.00;95689.31;2098310;28;20495;-60
2024/03/08 01:38:54;;;;;;;24.63;9.75;;;;;;;-0.74;100.00;95690.16;2098213;28;20396;-60
2024/03/08 01:39:55;;;;;;;33.35;14.75;;;;;;;-0.76;100.00;95696.97;2098400;28;20036;-60
2024/03/08 01:40:56;;;;;;;22.20;10.25;;;;;;;-0.80;100.00;95695.31;2098452;28;20033;-61
2024/03/08 01:41:57;;;;;;;31.20;13.77;;;;;;;-0.81;100.00;95692.75;2098364;28;20041;-60
2024/03/08 01:43:28;;;;;;;18.13;9.50;;;;;;;-0.82;100.00;95689.38;2098435;28;20047;-60
2024/03/08 01:44:30;;;;;;;23.52;9.73;;;;;;;-0.84;100.00;95685.97;2089561;28;20063;-60
2024/03/08 01:45:34;;;;;;;27.23;12.38;;;;;;;-0.84;100.00;95687.69;2091293;28;20531;-60
2024/03/08 01:46:35;;;;;;;27.35;12.98;;;;;;;-0.87;100.00;95677.53;2098082;28;20481;-59
2024/03/08 01:47:37;;;;;;;32.60;15.07;;;;;;;-0.90;100.00;95684.31;2089590;28;20048;-59
2024/03/08 01:48:38;;;;;;;33.15;16.23;;;;;;;-0.95;100.00;95687.78;2081363;28;20435;-59
2024/03/08 01:49:39;;;;;;;31.77;14.65;;;;;;;-0.96;100.00;95686.09;2089346;28;20057;-60
2024/03/08 01:50:40;;;;;;;26.08;12.68;;;;;;;-0.95;100.00;95670.75;2081266;28;20433;-60
2024/03/08 01:51:41;;;;;;;30.88;16.58;;;;;;;-0.94;100.00;95677.53;2088992;28;20104;-60
2024/03/08 01:52:43;;;;;;;27.58;13.45;;;;;;;-0.99;100.00;95669.13;2089689;28;20428;-60
2024/03/08 01:53:45;;;;;;;24.25;12.15;;;;;;;-0.92;100.00;95675.84;2088711;28;20060;-60
2024/03/08 01:54:46;;;;;;;19.98;8.98;;;;;;;-0.91;100.00;95676.69;2089473;28;20041;-59
2024/03/08 01:55:48;;;;;;;30.50;14.93;;;;;;;-0.92;100.00;95668.19;2080964;28;20576;-60
2024/03/08 01:56:49;;;;;;;27.85;12.65;;;;;;;-0.96;100.00;95674.19;2081289;28;20045;-60
2024/03/08 01:57:50;;;;;;;26.20;11.95;;;;;;;-0.93;100.00;95671.59;2088958;28;20072;-60
2024/03/08 01:58:51;;;;;;;18.80;8.15;;;;;;;-1.00;100.00;95674.22;2097724;28;20456;-60
2024/03/08 01:59:54;;;;;;;25.50;12.80;;;;;;;-0.97;100.00;95666.53;2089525;28;20036;-60
2024/03/08 02:00:56;;;;;;;31.42;15.63;;;;;;;-0.97;100.00;95669.09;2089773;28;20072;-60
2024/03/08 02:02:00;;;;;;;28.75;14.77;;;;;;;-1.02;100.00;95663.19;2097698;28;20067;-59
2024/03/08 02:03:01;;;;;;;26.98;13.65;;;;;;;-1.01;100.00;95660.63;2089014;28;20048;-59
2024/03/08 02:04:02;;;;;;;28.50;13.88;;;;;;;-0.99;100.00;95660.59;2088866;28;20049;-60
2024/03/08 02:05:04;;;;;;;21.73;9.40;;;;;;;-0.99;100.00;95655.50;2088959;28;20037;-59
2024/03/08 02:06:08;;;;;;;30.48;14.05;;;;;;;-0.99;100.00;95658.03;2081304;28;20037;-59
2024/03/08 02:07:09;;;;;;;29.17;14.20;;;;;;;-1.02;100.00;95664.00;2089590;28;20456;-60
2024/03/08 02:08:14;;;;;;;26.25;12.60;;;;;;;-1.05;100.00;95663.19;2097833;28;20408;-60
2024/03/08 02:09:17;;;;;;;27.58;13.77;;;;;;;-1.05;100.00;95665.75;2089234;28;20417;-60
2024/03/08 02:10:18;;;;;;;34.58;16.33;;;;;;;-1.05;100.00;95656.41;2090259;28;20044;-60
2024/03/08 02:11:20;;;;;;;31.98;15.20;;;;;;;-1.08;100.00;95656.41;2098269;28;20399;-59
2024/03/08 02:12:21;;;;;;;31.65;16.42;;;;;;;-1.06;100.00;95659.81;2089428;28;20468;-60
2024/03/08 02:13:22;;;;;;;29.35;12.43;;;;;;;-1.11;100.00;95652.19;2081404;28;20045;-59
2024/03/08 02:14:23;;;;;;;24.10;10.27;;;;;;;-1.12;100.00;95647.13;2088902;28;20060;-59
2024/03/08 02:15:25;;;;;;;31.10;14.00;;;;;;;-1.08;100.00;95651.31;2098281;28;20055;-60
2024/03/08 02:16:27;;;;;;;35.78;17.25;;;;;;;-1.04;100.00;95650.47;2098238;28;20051;-59
2024/03/08 02:17:30;;;;;;;24.10;11.20;;;;;;;-1.11;100.00;95643.72;2098250;28;20432;-60
2024/03/08 02:18:34;;;;;;;27.38;13.65;;;;;;;-1.15;100.00;95640.34;2097995;28;20404;-60
2024/03/08 02:19:36;;;;;;;24.98;10.77;;;;;;;-1.09;100.00;95641.16;2098277;28;20055;-59
2024/03/08 02:20:37;;;;;;;25.75;13.85;;;;;;;-1.06;100.00;95636.03;2098250;28;20048;-62
2024/03/08 02:21:38;;;;;;;29.00;13.05;;;;;;;-1.07;100.00;95636.88;2098551;28;20600;-60
2024/03/08 02:22:39;;;;;;;26.10;13.80;;;;;;;-1.07;100.00;95635.16;2097917;28;20052;-59
2024/03/08 02:23:40;;;;;;;20.33;8.68;;;;;;;-1.05;100.00;95630.06;2098210;28;20093;-59
2024/03/08 02:24:41;;;;;;;22.40;9.60;;;;;;;-1.03;100.00;95630.91;2098515;28;20036;-60
2024/03/08 02:25:43;;;;;;;32.30;14.55;;;;;;;-1.07;100.00;95634.31;2089724;28;20416;-60
2024/03/08 02:26:44;;;;;;;26.75;13.63;;;;;;;-1.11;100.00;95639.44;2089318;28;20041;-60
2024/03/08 02:27:45;;;;;;;31.05;15.27;;;;;;;-1.13;100.00;95640.31;2081329;28;20052;-59
2024/03/08 02:28:46;;;;;;;37.13;16.17;;;;;;;-1.16;100.00;95640.34;2080907;28;20057;-59
2024/03/08 02:29:47;;;;;;;30.35;13.52;;;;;;;-1.16;100.00;95642.88;2089117;28;20045;-60
2024/03/08 02:30:49;;;;;;;22.30;9.80;;;;;;;-1.14;100.00;95631.84;2081202;28;20049;-61
2024/03/08 02:31:53;;;;;;;22.95;10.60;;;;;;;-1.11;100.00;95639.44;2089143;28;20087;-61
2024/03/08 02:32:54;;;;;;;30.08;15.18;;;;;;;-1.09;100.00;95636.91;2098257;28;20047;-62
2024/03/08 02:33:55;;;;;;;34.25;17.52;;;;;;;-1.09;100.00;95634.34;2098526;28;20036;-62
2024/03/08 02:34:59;;;;;;;30.38;13.18;;;;;;;-1.10;100.00;95637.75;2097894;28;20481;-61
2024/03/08 02:36:00;;;;;;;30.60;16.15;;;;;;;-1.09;100.00;95636.06;2097761;28;20048;-62
2024/03/08 02:37:01;;;;;;;27.38;15.48;;;;;;;-1.10;100.00;95637.75;2097281;28;20049;-61
2024/03/08 02:38:05;;;;;;;36.47;19.33;;;;;;;-1.15;100.00;95634.38;2097801;28;20044;-62
2024/03/08 02:39:07;;;;;;;34.58;16.88;;;;;;;-1.17;100.00;95633.56;2098238;28;20037;-59
2024/03/08 02:40:08;;;;;;;33.17;16.38;;;;;;;-1.20;100.00;95633.59;2097347;28;20045;-59
2024/03/08 02:41:10;;;;;;;34.28;17.05;;;;;;;-1.25;100.00;95635.31;2098127;28;20044;-59
2024/03/08 02:42:11;;;;;;;31.38;15.77;;;;;;;-1.22;100.00;95636.16;2098186;28;20481;-59
2024/03/08 02:43:12;;;;;;;26.63;10.75;;;;;;;-1.21;100.00;95631.88;2098154;28;20056;-61
2024/03/08 02:44:14;;;;;;;36.35;17.90;;;;;;;-1.22;100.00;95636.16;2097590;28;20040;-61
2024/03/08 02:45:15;;;;;;;33.40;14.65;;;;;;;-1.22;100.00;95628.50;2097513;28;20048;-59
2024/03/08 02:46:17;;;;;;;34.35;16.13;;;;;;;-1.19;100.00;95630.19;2098185;28;20048;-61
2024/03/08 02:47:18;;;;;;;34.35;16.80;;;;;;;-1.23;100.00;95636.13;2099721;28;20048;-65
2024/03/08 02:48:19;;;;;;;33.97;16.27;;;;;;;-1.26;100.00;95638.72;2099079;28;20504;-59
2024/03/08 02:49:20;;;;;;;37.00;18.88;;;;;;;-1.24;100.00;95626.81;2099679;28;20047;-59
2024/03/08 02:50:22;;;;;;;31.90;13.35;;;;;;;-1.21;100.00;95631.88;2099693;28;20408;-59
2024/03/08 02:51:23;;;;;;;36.78;17.10;;;;;;;-1.26;100.00;95629.38;2098662;28;20051;-59
2024/03/08 02:52:24;;;;;;;30.85;14.82;;;;;;;-1.26;100.00;95634.47;2099650;28;20041;-61
2024/03/08 02:53:25;;;;;;;28.60;12.77;;;;;;;-1.18;100.00;95637.78;2099752;28;20036;-61
2024/03/08 02:54:26;;;;;;;28.75;12.98;;;;;;;-1.20;100.00;95639.53;2099386;28;20495;-62
2024/03/08 02:55:27;;;;;;;33.97;15.48;;;;;;;-1.21;100.00;95642.06;2099945;28;20032;-61
2024/03/08 02:56:28;;;;;;;34.97;14.82;;;;;;;-1.22;100.00;95638.69;2099913;28;20051;-61
2024/03/08 02:57:30;;;;;;;35.58;17.33;;;;;;;-1.27;100.00;95637.88;2099949;28;20065;-62
2024/03/08 02:58:31;;;;;;;38.67;17.58;;;;;;;-1.35;100.00;95630.28;2099292;28;20476;-62
2024/03/08 02:59:32;;;;;;;36.63;18.70;;;;;;;-1.31;100.00;95631.13;2099932;28;20033;-61
2024/03/08 03:00:34;;;;;;;43.20;20.23;;;;;;;-1.38;100.00;95626.91;2099837;28;20036;-62
2024/03/08 03:01:36;;;;;;;36.30;17.58;;;;;;;-1.36;100.00;95632.84;2098881;28;20045;-59
2024/03/08 03:02:37;;;;;;;36.17;17.25;;;;;;;-1.38;100.00;95619.28;2099566;28;20051;-59
2024/03/08 03:03:41;;;;;;;30.77;14.20;;;;;;;-1.39;100.00;95620.13;2098656;28;20056;-62
2024/03/08 03:04:43;;;;;;;39.28;17.95;;;;;;;-1.39;100.00;95620.97;2090711;28;20445;-59
2024/03/08 03:05:44;;;;;;;37.08;13.63;;;;;;;-1.37;100.00;95619.25;2090555;28;20444;-59
2024/03/08 03:06:45;;;;;;;19.98;9.25;;;;;;;-1.35;100.00;95620.09;2099057;28;20063;-62
2024/03/08 03:07:48;;;;;;;33.60;14.30;;;;;;;-1.34;100.00;95620.94;2098660;28;20416;-59
2024/03/08 03:08:51;;;;;;;20.77;10.32;;;;;;;-1.32;100.00;95609.03;2099061;28;20052;-62
2024/03/08 03:09:52;;;;;;;24.85;11.25;;;;;;;-1.31;100.00;95618.38;2099624;28;20044;-59
2024/03/08 03:10:53;;;;;;;36.08;18.10;;;;;;;-1.33;100.00;95620.94;2099597;28;20047;-62
2024/03/08 03:11:54;;;;;;;32.17;15.13;;;;;;;-1.33;100.00;95615.84;2099859;28;20055;-61
2024/03/08 03:12:55;;;;;;;36.28;17.33;;;;;;;-1.37;100.00;95616.69;2099670;28;20037;-61
2024/03/08 03:13:56;;;;;;;38.33;18.85;;;;;;;-1.41;100.00;95609.13;2099839;28;20051;-62
2024/03/08 03:14:57;;;;;;;33.42;15.35;;;;;;;-1.41;100.00;95615.03;2099767;28;20492;-62
2024/03/08 03:15:59;;;;;;;33.92;17.20;;;;;;;-1.43;100.00;95600.63;2099480;28;20076;-59
2024/03/08 03:17:00;;;;;;;29.90;14.68;;;;;;;-1.43;100.00;95610.81;2099188;28;20045;-62
2024/03/08 03:18:01;;;;;;;36.60;14.60;;;;;;;-1.43;100.00;95614.19;2099819;28;20052;-62
2024/03/08 03:19:05;;;;;;;35.25;15.30;;;;;;;-1.40;100.00;95605.69;2098814;28;20048;-62
2024/03/08 03:20:12;;;;;;;42.53;20.20;;;;;;;-1.42;100.00;95613.34;2098638;28;20053;-62
2024/03/08 03:21:14;;;;;;;34.78;16.58;;;;;;;-1.38;100.00;95604.00;2099508;28;20044;-59
2024/03/08 03:22:15;;;;;;;37.78;18.20;;;;;;;-1.41;100.00;95609.13;2099552;28;20040;-59
2024/03/08 03:23:20;;;;;;;34.47;14.55;;;;;;;-1.41;100.00;95609.13;2099467;28;20404;-62
2024/03/08 03:24:21;;;;;;;29.67;13.40;;;;;;;-1.39;100.00;95615.00;2099575;28;20040;-62
2024/03/08 03:25:28;;;;;;;38.03;17.52;;;;;;;-1.41;100.00;95615.03;2099106;28;20115;-60
2024/03/08 03:26:31;;;;;;;36.25;16.38;;;;;;;-1.46;100.00;95610.84;2099523;28;20067;-62
2024/03/08 03:27:32;;;;;;;34.33;15.20;;;;;;;-1.43;100.00;95605.72;2099453;28;20400;-61
2024/03/08 03:28:33;;;;;;;36.58;14.15;;;;;;;-1.45;100.00;95597.25;2099131;28;20485;-61
2024/03/08 03:29:34;;;;;;;38.58;19.13;;;;;;;-1.45;100.00;95612.53;2098768;28;20048;-62
2024/03/08 03:30:36;;;;;;;39.40;19.52;;;;;;;-1.47;100.00;95607.47;2099286;28;20044;-59
2024/03/08 03:31:37;;;;;;;37.35;17.35;;;;;;;-1.45;100.00;95612.53;2098716;28;20049;-60
2024/03/08 03:32:46;;;;;;;39.50;18.20;;;;;;;-1.47;100.00;95610.00;2099127;28;20048;-62
2024/03/08 03:33:47;;;;;;;40.05;19.10;;;;;;;-1.49;100.00;95613.41;2099543;28;20127;-59
2024/03/08 03:34:52;;;;;;;37.60;17.00;;;;;;;-1.53;100.00;95614.28;2099581;28;20036;-61
2024/03/08 03:35:54;;;;;;;42.05;19.92;;;;;;;-1.51;100.00;95613.41;2098736;28;20057;-61
2024/03/08 03:36:55;;;;;;;42.85;20.48;;;;;;;-1.54;100.00;95615.13;2099511;28;20043;-62
2024/03/08 03:38:30;;;;;;;37.85;17.88;;;;;;;-1.57;100.00;95609.19;2098800;28;20055;-59
2024/03/08 03:39:24;;;;;;;39.40;16.80;;;;;;;-1.52;100.00;95604.09;2096255;28;20053;-61
2024/03/08 03:40:25;;;;;;;36.88;18.05;;;;;;;-1.48;100.00;95610.00;2099419;28;20400;-59
2024/03/08 03:41:26;;;;;;;39.78;20.25;;;;;;;-1.46;100.00;95601.50;2098806;28;20413;-59
2024/03/08 03:42:27;;;;;;;39.78;19.15;;;;;;;-1.47;100.00;95598.94;2098794;28;20045;-62
2024/03/08 03:43:28;;;;;;;39.10;18.80;;;;;;;-1.51;100.00;95603.22;2099131;28;20044;-59
2024/03/08 03:44:30;;;;;;;44.17;20.85;;;;;;;-1.54;100.00;95604.94;2099074;28;20052;-61
2024/03/08 03:45:34;;;;;;;45.38;20.10;;;;;;;-1.60;100.00;95601.59;2099250;28;20048;-61
2024/03/08 03:46:35;;;;;;;40.72;19.05;;;;;;;-1.57;100.00;95604.09;2098657;28;20056;-61
2024/03/08 03:47:37;;;;;;;41.00;17.25;;;;;;;-1.54;100.00;95602.41;2098964;28;20056;-61
2024/03/08 03:48:39;;;;;;;42.42;20.77;;;;;;;-1.56;100.00;95607.50;2098697;28;20049;-61
2024/03/08 03:49:42;;;;;;;45.55;20.35;;;;;;;-1.55;100.00;95596.47;2098598;28;20097;-61
2024/03/08 03:50:44;;;;;;;41.33;18.90;;;;;;;-1.56;100.00;95595.59;2098811;28;20054;-61
2024/03/08 03:51:45;;;;;;;42.33;19.92;;;;;;;-1.57;100.00;95599.03;2099082;28;20049;-61
2024/03/08 03:52:46;;;;;;;40.55;18.17;;;;;;;-1.57;100.00;95591.38;2099242;28;20040;-61
2024/03/08 03:53:48;;;;;;;36.38;16.77;;;;;;;-1.53;100.00;95588.81;2099207;28;20051;-61
2024/03/08 03:54:49;;;;;;;43.60;22.25;;;;;;;-1.58;100.00;95584.59;2098688;28;20044;-61
2024/03/08 03:55:50;;;;;;;41.72;18.98;;;;;;;-1.53;100.00;95593.91;2099055;28;20048;-61
2024/03/08 03:56:53;;;;;;;37.83;17.30;;;;;;;-1.53;100.00;95589.66;2098938;28;20040;-61
2024/03/08 03:57:54;;;;;;;40.10;20.60;;;;;;;-1.53;100.00;95591.34;2099027;28;20056;-61
2024/03/08 03:58:55;;;;;;;42.50;19.15;;;;;;;-1.52;100.00;95593.91;2098901;28;20040;-61
2024/03/08 03:59:58;;;;;;;38.53;18.33;;;;;;;-1.54;100.00;95592.22;2098677;28;20051;-61
2024/03/08 04:00:59;;;;;;;39.95;18.50;;;;;;;-1.49;100.00;95598.97;2098960;28;20048;-61
2024/03/08 04:02:00;;;;;;;42.17;19.17;;;;;;;-1.49;100.00;95593.03;2099290;28;20063;-61
2024/03/08 04:03:01;;;;;;;43.50;18.95;;;;;;;-1.52;100.00;95599.00;2097348;28;20036;-61
2024/03/08 04:04:02;;;;;;;48.40;23.38;;;;;;;-1.55;100.00;95591.38;2097821;28;20103;-61
2024/03/08 04:05:05;;;;;;;41.17;19.20;;;;;;;-1.53;100.00;95599.00;2098924;28;20048;-61
2024/03/08 04:06:07;;;;;;;47.70;20.90;;;;;;;-1.52;100.00;95586.25;2099224;28;20084;-61
2024/03/08 04:07:09;;;;;;;46.78;22.70;;;;;;;-1.58;100.00;95592.25;2099162;28;20040;-61
2024/03/08 04:08:11;;;;;;;38.03;14.60;;;;;;;-1.57;100.00;95593.09;2098756;28;20052;-60
2024/03/08 04:09:12;;;;;;;36.85;18.00;;;;;;;-1.54;100.00;95597.31;2099267;28;20044;-60
2024/03/08 04:10:14;;;;;;;41.05;20.85;;;;;;;-1.51;100.00;95594.75;2098548;28;20044;-60
2024/03/08 04:11:16;;;;;;;45.95;18.92;;;;;;;-1.49;100.00;95604.06;2098797;28;20044;-60
2024/03/08 04:12:17;;;;;;;46.83;20.35;;;;;;;-1.50;100.00;95606.59;2098827;28;20052;-60
2024/03/08 04:13:20;;;;;;;47.05;23.33;;;;;;;-1.56;100.00;95600.69;2098689;28;20059;-60
2024/03/08 04:14:22;;;;;;;45.38;23.00;;;;;;;-1.56;100.00;95600.69;2098487;28;20057;-61
2024/03/08 04:15:23;;;;;;;46.67;20.88;;;;;;;-1.57;100.00;95600.72;2099139;28;20056;-61
2024/03/08 04:16:25;;;;;;;41.78;19.05;;;;;;;-1.54;100.00;95593.06;2099287;28;20037;-61
2024/03/08 04:17:26;;;;;;;42.17;20.25;;;;;;;-1.50;100.00;95593.88;2099035;28;20081;-61
2024/03/08 04:18:28;;;;;;;48.72;25.25;;;;;;;-1.52;100.00;95599.00;2099097;28;20044;-61
2024/03/08 04:19:29;;;;;;;43.78;21.35;;;;;;;-1.51;100.00;95585.41;2098145;28;20060;-60
2024/03/08 04:20:30;;;;;;;41.78;19.30;;;;;;;-1.47;100.00;95602.34;2098540;28;20053;-61
2024/03/08 04:21:31;;;;;;;48.15;22.15;;;;;;;-1.46;100.00;95606.59;2098072;28;20052;-61
2024/03/08 04:22:35;;;;;;;47.22;18.67;;;;;;;-1.45;100.00;95595.53;2098846;28;20052;-61
2024/03/08 04:23:36;;;;;;;49.85;24.17;;;;;;;-1.42;100.00;95599.75;2098691;28;20052;-61
2024/03/08 04:24:37;;;;;;;43.42;19.98;;;;;;;-1.43;100.00;95598.91;2098988;28;20397;-61
2024/03/08 04:25:38;;;;;;;49.25;24.63;;;;;;;-1.41;100.00;95598.91;2099117;28;20051;-60
2024/03/08 04:26:39;;;;;;;42.30;19.77;;;;;;;-1.40;100.00;95590.41;2098514;28;20044;-61
2024/03/08 04:27:41;;;;;;;49.22;24.80;;;;;;;-1.38;100.00;95591.25;2099043;28;20040;-61
2024/03/08 04:28:42;;;;;;;46.45;21.15;;;;;;;-1.37;100.00;95596.31;2099038;28;20519;-60
2024/03/08 04:29:43;;;;;;;45.92;22.00;;;;;;;-1.38;100.00;95592.09;2098316;28;20040;-61
2024/03/08 04:30:46;;;;;;;46.15;21.08;;;;;;;-1.38;100.00;95584.44;2099230;28;20044;-60
2024/03/08 04:31:47;;;;;;;41.00;18.63;;;;;;;-1.36;100.00;95587.00;2081230;28;20056;-61
2024/03/08 04:32:48;;;;;;;41.80;17.15;;;;;;;-1.36;100.00;95587.84;2081965;28;20049;-61
2024/03/08 04:33:49;;;;;;;40.13;19.00;;;;;;;-1.33;100.00;95584.44;2098926;28;20040;-61
2024/03/08 04:34:50;;;;;;;46.90;24.15;;;;;;;-1.30;100.00;95592.03;2099230;28;20404;-61
2024/03/08 04:35:52;;;;;;;48.95;22.27;;;;;;;-1.31;100.00;95572.53;2098718;28;20032;-61
2024/03/08 04:36:53;;;;;;;44.67;20.98;;;;;;;-1.31;100.00;95580.19;2099082;28;20044;-60
2024/03/08 04:37:54;;;;;;;45.55;21.25;;;;;;;-1.29;100.00;95593.72;2098660;28;20049;-60
2024/03/08 04:38:55;;;;;;;45.58;18.73;;;;;;;-1.30;100.00;95575.91;2098836;28;20033;-63
2024/03/08 04:39:57;;;;;;;46.60;20.20;;;;;;;-1.29;100.00;95583.53;2098495;28;20045;-61
2024/03/08 04:40:58;;;;;;;43.22;20.65;;;;;;;-1.28;100.00;95580.16;2098188;28;20086;-61